Thursday, September 20, 2018, 8:59 AM EDT
Back to Local

KSLK, Adirondack Regional Airport

Location: Saranac Lake, NY, United States Lat: 44.4
Local Time: 8:59 AM EDT (12:59 GMT) Lon: -74.2
Time Zone: US/Eastern Elev: 1663 ft

Show me the last for .
Show Decoded

2018-09-20 08:40 METAR KSLK 201240Z AUTO 00000KT 10SM FEW002 BKN016 BKN120 08/08 A3023 RMK AO2
                 T00780078 =
2018-09-20 07:51 METAR KSLK 201151Z AUTO 00000KT 9SM OVC016 06/06 A3024 RMK AO2 SLP248 T00610061
                 10061 20006 51035 =
2018-09-20 07:13 METAR KSLK 201113Z AUTO 00000KT 10SM SCT003 OVC016 04/04 A3022 RMK AO2 T00440044
                 =
2018-09-20 06:51 METAR KSLK 201051Z AUTO 00000KT 10SM OVC016 04/04 A3022 RMK AO2 SLP240 T00390039
                 =
2018-09-20 06:34 METAR KSLK 201034Z AUTO 00000KT 7SM SCT002 OVC018 04/04 A3019 RMK AO2 T00390039
                 =
2018-09-20 06:25 METAR KSLK 201025Z AUTO 00000KT 3SM BR BKN002 OVC018 03/03 A3019 RMK AO2
                 T00280028 =
2018-09-20 05:51 METAR KSLK 200951Z AUTO 00000KT 1SM BR VV002 03/03 A3017 RMK AO2 SLP223
                 T00280028 =
2018-09-20 05:45 METAR KSLK 200945Z AUTO 00000KT 1SM BR VV002 02/02 A3016 RMK AO2 =
2018-09-20 05:43 METAR KSLK 200943Z AUTO 00000KT 3/4SM BR VV001 02/02 A3016 RMK AO2 T00220022 =
2018-09-20 05:16 METAR KSLK 200916Z AUTO 00000KT 1/4SM FG VV001 02/02 A3015 RMK AO2 T00220022 =
2018-09-20 05:05 METAR KSLK 200905Z AUTO 00000KT 1SM BR VV001 02/02 A3014 RMK AO2 T00170017 =
2018-09-20 04:51 METAR KSLK 200851Z AUTO 00000KT 1/4SM FG VV001 02/02 A3014 RMK AO2 SLP212
                 T00170017 56004 =
2018-09-20 04:44 METAR KSLK 200844Z AUTO 00000KT 1/2SM FG VV001 02/02 A3014 RMK AO2 T00170017 =
2018-09-20 04:34 METAR KSLK 200834Z AUTO 04005KT 1 1/2SM BR BKN001 01/01 A3014 RMK AO2 T00110011
                 =
2018-09-20 04:26 METAR KSLK 200826Z AUTO 00000KT 3/4SM BR VV001 02/02 A3014 RMK AO2 T00170017 =
2018-09-20 03:51 METAR KSLK 200751Z AUTO 00000KT 1/4SM FG VV001 02/02 A3014 RMK AO2 SLP212
                 T00220022 =
2018-09-20 03:44 METAR KSLK 200744Z AUTO 00000KT 3/4SM BR VV001 02/02 A3014 RMK AO2 T00220022 =
2018-09-20 03:41 METAR KSLK 200741Z AUTO 00000KT 1 1/4SM BR OVC002 02/02 A3014 RMK AO2 T00170017
                 =
2018-09-20 03:34 METAR KSLK 200734Z AUTO 00000KT 1SM BR VV001 01/01 A3014 RMK AO2 T00110011 =
2018-09-20 03:15 METAR KSLK 200715Z AUTO 00000KT 1/4SM FG VV001 01/01 A3013 RMK AO2 T00060006 =
2018-09-20 03:01 METAR KSLK 200701Z AUTO 00000KT 1/2SM FG VV001 01/01 A3014 RMK AO2 T00110011 =
2018-09-20 02:51 METAR KSLK 200651Z AUTO 00000KT 1/4SM FG VV001 01/01 A3014 RMK AO2 SLP213
                 T00110011 =
2018-09-20 02:43 METAR KSLK 200643Z AUTO 00000KT 1/4SM FG VV001 01/01 A3015 RMK AO2 T00110011 =
2018-09-20 02:39 METAR KSLK 200639Z AUTO 00000KT 1 1/4SM BR BKN002 01/01 A3015 RMK AO2 T00110011
                 =
2018-09-20 02:30 METAR KSLK 200630Z AUTO 00000KT 10SM FEW001 01/01 A3016 RMK AO2 T00110011 =
2018-09-20 01:51 METAR KSLK 200551Z AUTO 00000KT 9SM CLR 02/02 A3015 RMK AO2 SLP215 T00220022
                 10117 20022 53002 =
2018-09-20 00:51 METAR KSLK 200451Z AUTO 02003KT 6SM BR CLR 03/03 A3015 RMK AO2 SLP213 T00330033
                 401780033 =
2018-09-20 00:44 METAR KSLK 200444Z AUTO 00000KT 6SM BR CLR 04/04 A3015 RMK AO2 T00390039 =
2018-09-20 00:34 METAR KSLK 200434Z AUTO 03003KT 2SM BR CLR 03/03 A3015 RMK AO2 T00330033 =
2018-09-19 23:51 METAR KSLK 200351Z AUTO 03003KT 9SM CLR 03/03 A3015 RMK AO2 SLP214 T00330033 =
2018-09-19 22:51 METAR KSLK 200251Z AUTO 00000KT 10SM CLR 07/07 A3014 RMK AO2 SLP212 T00720067
                 51010 =
2018-09-19 21:51 METAR KSLK 200151Z AUTO 04004KT 10SM CLR 09/07 A3014 RMK AO2 SLP209 T00890072 =
2018-09-19 21:39 METAR KSLK 200139Z AUTO 06005KT 10SM SCT028 09/08 A3013 RMK AO2 T00940078 =
2018-09-19 20:51 METAR KSLK 200051Z AUTO 05005KT 10SM OVC028 11/08 A3013 RMK AO2 SLP206 T01110083
                 =
2018-09-19 19:51 METAR KSLK 192351Z AUTO 06009KT 10SM OVC028 12/09 A3011 RMK AO2 SLP199 T01220089
                 10178 20122 53014 =
2018-09-19 19:28 METAR KSLK 192328Z AUTO 04007KT 10SM BKN026 OVC031 12/09 A3011 RMK AO2 T01220094
                 =
2018-09-19 18:51 METAR KSLK 192251Z AUTO 01006KT 10SM OVC031 13/09 A3009 RMK AO2 SLP190 T01280094
                 =
2018-09-19 18:25 METAR KSLK 192225Z AUTO 02006KT 10SM OVC030 13/09 A3008 RMK AO2 T01330094 =
2018-09-19 17:51 METAR KSLK 192151Z AUTO 36006KT 10SM BKN027 OVC031 15/10 A3007 RMK AO2 SLP183
                 T01500100 =
2018-09-19 16:51 METAR KSLK 192051Z AUTO VRB05KT 10SM FEW028 BKN035 16/09 A3007 RMK AO2 SLP182
                 T01560094 53015 =
2018-09-19 16:29 METAR KSLK 192029Z AUTO 02007G14KT 10SM BKN030 17/09 A3005 RMK AO2 T01670094 =
2018-09-19 16:17 METAR KSLK 192017Z AUTO VRB06KT 10SM BKN029 18/10 A3004 RMK AO2 T01780100 =
2018-09-19 15:51 METAR KSLK 191951Z AUTO 05007KT 10SM OVC032 17/10 A3004 RMK AO2 SLP171 T01670100
                 =
2018-09-19 14:51 METAR KSLK 191851Z AUTO 04008KT 10SM OVC034 17/09 A3003 RMK AO2 SLP166 T01720094
                 =
2018-09-19 13:51 METAR KSLK 191751Z AUTO 00000KT 10SM BKN031 17/09 A3002 RMK AO2 SLP165 T01720094
                 10178 20122 58002 =
2018-09-19 12:51 METAR KSLK 191651Z AUTO 10006KT 10SM OVC031 16/09 A3003 RMK AO2 SLP169 T01610094
                 =
2018-09-19 12:37 METAR KSLK 191637Z AUTO 08005KT 10SM OVC031 17/09 A3003 RMK AO2 T01670094 =
2018-09-19 11:51 METAR KSLK 191551Z AUTO 01007KT 10SM BKN026 OVC032 16/09 A3003 RMK AO2 SLP167
                 T01610094 =
2018-09-19 10:51 METAR KSLK 191451Z AUTO 03007KT 10SM OVC031 15/10 A3003 RMK AO2 SLP166 T01500100
                 51016 =
2018-09-19 09:51 METAR KSLK 191351Z AUTO 07009KT 10SM OVC030 14/09 A3001 RMK AO2 SLP161 T01390094
                 =

Support USWX by starting your Amazon purchase here.